createdAt,value
2023-01-17T00:02:30.951Z,4.75
2023-01-17T00:06:08.909Z,4.74
2023-01-17T00:09:26.930Z,4.49
2023-01-17T00:12:26.947Z,4.49
2023-01-17T00:15:26.905Z,4.43
2023-01-17T00:18:26.944Z,4.47
2023-01-17T00:21:44.937Z,4.33
2023-01-17T00:25:02.919Z,4.39
2023-01-17T00:28:02.892Z,4.29
2023-01-17T00:31:03.014Z,4.38
2023-01-17T00:34:02.937Z,4.40
2023-01-17T00:37:02.912Z,4.35
2023-01-17T00:40:02.961Z,4.44
2023-01-17T00:43:20.906Z,4.40
2023-01-17T00:46:38.926Z,4.32
2023-01-17T00:49:56.945Z,4.31
2023-01-17T00:53:14.946Z,4.15
2023-01-17T00:56:35.929Z,4.22
2023-01-17T00:59:47.436Z,4.07
2023-01-17T01:03:04.910Z,4.04
2023-01-17T01:06:22.940Z,3.92
2023-01-17T01:09:40.893Z,3.91
2023-01-17T01:12:58.926Z,3.76
2023-01-17T01:16:16.944Z,3.73
2023-01-17T01:19:35.926Z,3.57
2023-01-17T01:22:53.933Z,3.53
2023-01-17T01:26:11.934Z,3.49
2023-01-17T01:29:29.912Z,3.59
2023-01-17T01:32:47.894Z,3.59
2023-01-17T01:35:49.945Z,3.48
2023-01-17T01:38:49.885Z,3.44
2023-01-17T01:41:49.896Z,3.50
2023-01-17T01:45:03.928Z,3.47
2023-01-17T01:48:04.897Z,3.42
2023-01-17T01:51:04.923Z,3.45
2023-01-17T01:54:06.903Z,3.31
2023-01-17T01:57:07.889Z,3.32
2023-01-17T02:00:10.885Z,3.36
2023-01-17T02:03:13.930Z,3.51
2023-01-17T02:06:17.940Z,3.58
2023-01-17T02:09:20.931Z,3.57
2023-01-17T02:12:21.927Z,3.56
2023-01-17T02:15:21.903Z,3.55
2023-01-17T02:18:33.898Z,3.53
2023-01-17T02:21:40.964Z,3.42
2023-01-17T02:24:49.919Z,3.57
2023-01-17T02:28:04.913Z,3.60
2023-01-17T02:31:15.937Z,3.65
2023-01-17T02:34:37.912Z,3.67
2023-01-17T02:38:02.921Z,3.57
2023-01-17T02:41:06.907Z,3.63
2023-01-17T02:44:06.885Z,3.62
2023-01-17T02:47:08.890Z,3.62
2023-01-17T02:50:14.887Z,3.58
2023-01-17T02:53:44.889Z,3.65
2023-01-17T02:56:59.944Z,3.66
2023-01-17T03:00:10.927Z,3.69
2023-01-17T03:03:31.920Z,3.69
2023-01-17T03:06:36.909Z,3.70
2023-01-17T03:09:37.906Z,3.56
2023-01-17T03:12:40.877Z,3.75
2023-01-17T03:15:40.922Z,3.71
2023-01-17T03:18:40.912Z,3.70
2023-01-17T03:21:40.935Z,3.65
2023-01-17T03:24:40.914Z,3.74
2023-01-17T03:27:40.910Z,3.74
2023-01-17T03:30:40.898Z,3.76
2023-01-17T03:33:40.906Z,3.77
2023-01-17T03:36:40.881Z,3.76
2023-01-17T03:39:40.889Z,3.62
2023-01-17T03:42:40.890Z,3.73
2023-01-17T03:45:40.988Z,3.81
2023-01-17T03:48:40.920Z,3.79
2023-01-17T03:51:40.875Z,3.61
2023-01-17T03:54:40.890Z,3.86
2023-01-17T03:57:40.901Z,3.87
2023-01-17T04:00:40.917Z,3.87
2023-01-17T04:03:40.908Z,3.89
2023-01-17T04:06:40.919Z,3.87
2023-01-17T04:09:40.864Z,3.81
2023-01-17T04:12:40.869Z,3.83
2023-01-17T04:15:40.914Z,3.89
2023-01-17T04:18:40.931Z,3.78
2023-01-17T04:21:40.911Z,3.81
2023-01-17T04:24:40.907Z,3.82
2023-01-17T04:27:40.875Z,3.92
2023-01-17T04:30:41.898Z,3.84
2023-01-17T04:33:41.884Z,3.86
2023-01-17T04:36:41.853Z,3.81
2023-01-17T04:39:41.897Z,3.76
2023-01-17T04:42:41.911Z,3.76
2023-01-17T04:45:41.884Z,3.78
2023-01-17T04:48:41.878Z,3.82
2023-01-17T04:51:41.924Z,3.84
2023-01-17T04:54:41.866Z,3.80
2023-01-17T04:57:41.884Z,3.92
2023-01-17T05:00:41.926Z,3.82
2023-01-17T05:03:41.927Z,3.93
2023-01-17T05:06:34.973Z,4.00
2023-01-17T05:09:34.883Z,4.00
2023-01-17T05:12:34.921Z,4.02
2023-01-17T05:15:34.907Z,4.05
2023-01-17T05:18:34.898Z,4.05
2023-01-17T05:21:34.871Z,4.04
2023-01-17T05:24:34.886Z,4.14
2023-01-17T05:27:34.879Z,4.15
2023-01-17T05:30:35.936Z,4.15
2023-01-17T05:33:35.893Z,4.20
2023-01-17T05:36:28.885Z,4.26
2023-01-17T05:39:08.042Z,4.25
2023-01-17T05:41:53.873Z,4.14
2023-01-17T05:44:39.923Z,4.15
2023-01-17T05:47:39.927Z,4.25
2023-01-17T05:50:42.881Z,4.41
2023-01-17T05:53:42.928Z,4.42
2023-01-17T05:56:42.877Z,4.55
2023-01-17T05:59:42.879Z,4.58
2023-01-17T06:02:42.972Z,4.55
2023-01-17T06:05:43.931Z,4.57
2023-01-17T06:08:43.919Z,4.49
2023-01-17T06:11:45.931Z,4.54
2023-01-17T06:14:49.065Z,4.54
2023-01-17T06:17:52.881Z,4.58
2023-01-17T06:20:52.868Z,4.60
2023-01-17T06:23:52.882Z,4.56
2023-01-17T06:26:52.887Z,4.22
2023-01-17T06:29:53.359Z,4.59
2023-01-17T06:32:53.915Z,4.74
2023-01-17T06:35:53.932Z,4.79
2023-01-17T06:38:53.932Z,4.62
2023-01-17T06:41:54.120Z,4.50
2023-01-17T06:44:54.015Z,4.68
2023-01-17T06:47:54.935Z,5.07
2023-01-17T06:50:55.877Z,4.94
2023-01-17T06:53:56.313Z,5.21
2023-01-17T06:56:56.953Z,5.41
2023-01-17T06:59:58.054Z,5.73
2023-01-17T07:02:58.002Z,5.72
2023-01-17T07:05:58.005Z,5.86
2023-01-17T07:08:57.945Z,5.92
2023-01-17T07:11:59.620Z,5.78
2023-01-17T07:14:59.897Z,5.86
2023-01-17T07:18:00.114Z,5.90
2023-01-17T07:20:59.928Z,5.84
2023-01-17T07:24:00.894Z,5.81
2023-01-17T07:27:04.907Z,5.63
2023-01-17T07:30:04.944Z,5.81
2023-01-17T07:33:06.117Z,5.76
2023-01-17T07:36:05.884Z,5.85
2023-01-17T07:39:06.438Z,5.80
2023-01-17T07:42:05.926Z,6.04
2023-01-17T07:45:06.893Z,6.00
2023-01-17T07:48:11.943Z,6.10
2023-01-17T07:51:12.154Z,6.17
2023-01-17T07:54:11.967Z,6.22
2023-01-17T07:57:11.929Z,6.37
2023-01-17T08:00:15.946Z,6.62
2023-01-17T08:03:15.864Z,6.42
2023-01-17T08:06:16.054Z,6.93
2023-01-17T08:09:16.896Z,7.10
2023-01-17T08:12:16.889Z,7.29
2023-01-17T08:15:16.865Z,7.30
2023-01-17T08:18:17.941Z,7.70
2023-01-17T08:21:26.929Z,7.81
2023-01-17T08:24:26.894Z,7.39
2023-01-17T08:27:26.890Z,7.98
2023-01-17T08:30:26.878Z,7.53
2023-01-17T08:33:26.895Z,7.66
2023-01-17T08:36:27.145Z,7.95
2023-01-17T08:39:26.923Z,7.90
2023-01-17T08:42:26.926Z,8.26
2023-01-17T08:45:26.945Z,9.28
2023-01-17T08:48:27.014Z,9.70
2023-01-17T08:51:29.457Z,9.52
2023-01-17T08:54:30.886Z,8.22
2023-01-17T08:57:30.873Z,7.79
2023-01-17T09:00:30.938Z,7.86
2023-01-17T09:03:31.203Z,7.72
2023-01-17T09:06:33.172Z,7.74
2023-01-17T09:09:33.410Z,8.21
2023-01-17T09:12:32.946Z,8.62
2023-01-17T09:15:32.853Z,8.52
2023-01-17T09:18:32.892Z,9.46
2023-01-17T09:21:32.892Z,11.01
2023-01-17T09:24:32.887Z,10.14
2023-01-17T09:27:35.899Z,9.37
2023-01-17T09:30:36.974Z,8.70
2023-01-17T09:33:36.872Z,8.38
2023-01-17T09:36:40.927Z,9.83
2023-01-17T09:39:40.890Z,8.77
2023-01-17T09:42:50.197Z,8.39
2023-01-17T09:45:50.941Z,8.29
2023-01-17T09:48:51.884Z,8.20
2023-01-17T09:51:53.902Z,8.27
2023-01-17T09:54:58.903Z,8.11
2023-01-17T09:58:13.920Z,8.48
2023-01-17T10:01:35.084Z,8.42
2023-01-17T10:04:57.959Z,11.04
2023-01-17T10:08:22.900Z,12.25
2023-01-17T10:11:31.927Z,12.64
2023-01-17T10:14:53.886Z,12.39
2023-01-17T10:18:21.735Z,10.63
2023-01-17T10:21:55.903Z,10.03
2023-01-17T10:25:14.879Z,9.84
2023-01-17T10:28:57.866Z,10.50
2023-01-17T10:32:15.889Z,11.78
2023-01-17T10:35:28.995Z,10.96
2023-01-17T10:38:30.929Z,9.99
2023-01-17T10:41:45.854Z,9.55
2023-01-17T10:44:53.903Z,9.67
2023-01-17T10:47:55.936Z,9.47
2023-01-17T10:51:08.916Z,8.95
2023-01-17T10:54:08.858Z,8.48
2023-01-17T10:57:08.890Z,8.49
2023-01-17T11:00:13.859Z,8.42
2023-01-17T11:03:13.876Z,8.22
2023-01-17T11:06:39.348Z,8.09
2023-01-17T11:09:52.949Z,8.13
2023-01-17T11:13:00.896Z,8.05
2023-01-17T11:16:05.995Z,7.86
2023-01-17T11:19:24.923Z,8.14
2023-01-17T11:22:27.929Z,8.12
2023-01-17T11:25:33.859Z,8.39
2023-01-17T11:28:39.907Z,8.22
2023-01-17T11:31:39.857Z,7.87
2023-01-17T11:34:40.887Z,8.28
2023-01-17T11:37:40.903Z,8.10
2023-01-17T11:40:50.011Z,7.84
2023-01-17T11:44:02.870Z,7.92
2023-01-17T11:47:27.003Z,7.70
2023-01-17T11:50:37.905Z,7.74
2023-01-17T11:53:40.933Z,7.87
2023-01-17T11:56:45.999Z,8.05
2023-01-17T11:59:49.875Z,8.16
2023-01-17T12:03:04.929Z,8.27
2023-01-17T12:06:16.857Z,9.21
2023-01-17T12:09:37.871Z,9.74
2023-01-17T12:12:57.856Z,10.28
2023-01-17T12:16:27.876Z,10.16
2023-01-17T12:19:33.899Z,10.40
2023-01-17T12:23:07.916Z,10.51
2023-01-17T12:26:36.880Z,10.49
2023-01-17T12:29:43.913Z,10.56
2023-01-17T12:32:57.884Z,9.52
2023-01-17T12:36:03.884Z,9.53
2023-01-17T12:39:03.845Z,9.13
2023-01-17T12:42:15.913Z,8.98
2023-01-17T12:45:26.888Z,8.74
2023-01-17T12:48:31.921Z,8.75
2023-01-17T12:51:35.866Z,8.86
2023-01-17T12:54:44.872Z,8.65
2023-01-17T12:57:52.965Z,8.45
2023-01-17T13:00:53.089Z,8.33
2023-01-17T13:04:10.928Z,8.32
2023-01-17T13:07:14.151Z,8.40
2023-01-17T13:10:30.993Z,8.36
2023-01-17T13:13:35.903Z,8.50
2023-01-17T13:16:46.307Z,8.26
2023-01-17T13:19:59.923Z,8.33
2023-01-17T13:22:59.885Z,8.39
2023-01-17T13:26:03.869Z,8.41
2023-01-17T13:29:12.842Z,8.38
2023-01-17T13:32:33.928Z,8.51
2023-01-17T13:35:39.879Z,8.37
2023-01-17T13:38:48.913Z,8.64
2023-01-17T13:42:03.901Z,8.44
2023-01-17T13:45:04.925Z,8.56
2023-01-17T13:48:04.900Z,8.49
2023-01-17T13:51:05.882Z,8.61
2023-01-17T13:54:05.915Z,8.64
2023-01-17T13:57:38.909Z,8.39
2023-01-17T14:00:40.903Z,8.25
2023-01-17T14:04:02.873Z,8.45
2023-01-17T14:07:07.905Z,8.26
2023-01-17T14:10:07.894Z,8.04
2023-01-17T14:13:08.895Z,7.93
2023-01-17T14:16:08.914Z,7.73
2023-01-17T14:19:08.903Z,7.73
2023-01-17T14:22:50.883Z,7.52
2023-01-17T14:25:55.859Z,7.61
2023-01-17T14:28:55.854Z,7.62
2023-01-17T14:31:55.969Z,7.52
2023-01-17T14:34:59.899Z,7.36
2023-01-17T14:38:09.910Z,7.41
2023-01-17T14:41:15.944Z,7.38
2023-01-17T14:44:16.881Z,6.98
2023-01-17T14:47:16.863Z,7.22
2023-01-17T14:50:43.917Z,7.13
2023-01-17T14:53:44.908Z,7.14
2023-01-17T14:56:44.867Z,7.07
2023-01-17T14:59:44.891Z,6.84
2023-01-17T15:02:45.086Z,6.97
2023-01-17T15:05:44.871Z,6.91
2023-01-17T15:08:48.906Z,6.95
2023-01-17T15:11:42.953Z,6.83
2023-01-17T15:14:45.861Z,6.71
2023-01-17T15:17:45.898Z,6.73
2023-01-17T15:20:45.880Z,6.67
2023-01-17T15:23:49.913Z,6.68
2023-01-17T15:26:52.865Z,6.54
2023-01-17T15:29:52.909Z,6.40
2023-01-17T15:32:52.898Z,6.49
2023-01-17T15:35:52.911Z,6.48
2023-01-17T15:38:53.892Z,6.35
2023-01-17T15:41:54.918Z,6.44
2023-01-17T15:44:55.913Z,6.34
2023-01-17T15:47:55.885Z,6.25
2023-01-17T15:50:55.866Z,6.23
2023-01-17T15:53:56.865Z,6.43
2023-01-17T15:56:56.906Z,6.24
2023-01-17T15:59:59.906Z,6.36
2023-01-17T16:03:02.956Z,6.33
2023-01-17T16:06:03.860Z,6.35
2023-01-17T16:09:06.881Z,6.28
2023-01-17T16:12:06.892Z,6.34
2023-01-17T16:15:12.760Z,6.25
2023-01-17T16:18:20.913Z,6.31
2023-01-17T16:21:46.855Z,6.36
2023-01-17T16:24:46.896Z,6.27
2023-01-17T16:27:47.921Z,6.14
2023-01-17T16:30:47.917Z,6.08
2023-01-17T16:33:48.907Z,6.15
2023-01-17T16:36:48.892Z,6.08
2023-01-17T16:39:48.855Z,6.14
2023-01-17T16:42:48.900Z,6.12
2023-01-17T16:45:56.932Z,6.13
2023-01-17T16:52:13.881Z,6.22
2023-01-17T16:55:13.902Z,6.14
2023-01-17T16:58:13.911Z,6.24
2023-01-17T17:01:13.934Z,6.26
2023-01-17T17:04:13.916Z,6.25
2023-01-17T17:07:13.896Z,6.25
2023-01-17T17:10:13.911Z,6.24
2023-01-17T17:13:13.872Z,6.28
2023-01-17T17:16:13.931Z,6.19
2023-01-17T17:19:15.907Z,6.24
2023-01-17T17:22:15.881Z,6.19
2023-01-17T17:25:15.864Z,6.11
2023-01-17T17:28:15.893Z,6.07
2023-01-17T17:31:20.940Z,6.01
2023-01-17T17:34:21.908Z,5.98
2023-01-17T17:37:22.922Z,6.00
2023-01-17T17:40:22.897Z,6.01
2023-01-17T17:43:24.329Z,5.99
2023-01-17T17:46:25.974Z,5.88
2023-01-17T17:49:25.898Z,5.89
2023-01-17T17:52:25.886Z,5.79
2023-01-17T17:55:25.875Z,5.85
2023-01-17T17:58:25.908Z,5.69
2023-01-17T18:01:26.044Z,5.78
2023-01-17T18:04:25.873Z,5.63
2023-01-17T18:07:26.870Z,5.80
2023-01-17T18:10:26.885Z,5.71
2023-01-17T18:13:26.899Z,5.69
2023-01-17T18:16:31.898Z,5.90
2023-01-17T18:19:39.875Z,5.91
2023-01-17T18:22:39.876Z,5.85
2023-01-17T18:25:39.864Z,5.86
2023-01-17T18:28:39.858Z,5.74
2023-01-17T18:31:40.925Z,5.86
2023-01-17T18:34:41.920Z,5.80
2023-01-17T18:37:41.877Z,5.91
2023-01-17T18:40:41.854Z,5.98
2023-01-17T18:43:41.856Z,6.06
2023-01-17T18:46:41.927Z,6.04
2023-01-17T18:49:41.860Z,6.06
2023-01-17T18:52:41.855Z,6.06
2023-01-17T18:55:41.868Z,6.01
2023-01-17T18:58:42.854Z,5.86
2023-01-17T19:01:43.937Z,5.97
2023-01-17T19:04:43.908Z,6.04
2023-01-17T19:07:43.905Z,6.06
2023-01-17T19:10:43.887Z,6.02
2023-01-17T19:13:44.893Z,5.96
2023-01-17T19:16:46.876Z,6.06
2023-01-17T19:19:46.868Z,6.01
2023-01-17T19:22:47.877Z,6.01
2023-01-17T19:25:48.902Z,5.80
2023-01-17T19:28:52.860Z,5.95
2023-01-17T19:31:53.963Z,5.96
2023-01-17T19:34:53.853Z,5.93
2023-01-17T19:37:58.174Z,5.82
2023-01-17T19:40:57.837Z,5.84
2023-01-17T19:43:57.865Z,5.81
2023-01-17T19:46:57.886Z,5.87
2023-01-17T19:49:57.910Z,5.84
2023-01-17T19:52:57.938Z,5.84
2023-01-17T19:55:57.887Z,5.77
2023-01-17T19:58:58.902Z,5.80
2023-01-17T20:01:58.972Z,5.83
2023-01-17T20:04:58.893Z,5.70
2023-01-17T20:07:59.086Z,5.79
2023-01-17T20:10:58.865Z,5.80
2023-01-17T20:14:02.858Z,5.81
2023-01-17T20:17:02.863Z,5.72
2023-01-17T20:20:02.901Z,5.80
2023-01-17T20:23:02.885Z,5.80
2023-01-17T20:26:06.843Z,5.74
2023-01-17T20:29:06.916Z,5.82
2023-01-17T20:32:06.900Z,5.83
2023-01-17T20:35:06.901Z,5.76
2023-01-17T20:38:06.872Z,5.68
2023-01-17T20:41:09.868Z,5.75
2023-01-17T20:44:10.893Z,5.91
2023-01-17T20:47:10.885Z,5.98
2023-01-17T20:50:11.900Z,5.97
2023-01-17T20:53:11.878Z,5.97
2023-01-17T20:56:11.906Z,5.93
2023-01-17T20:59:12.851Z,5.87
2023-01-17T21:02:13.092Z,5.97
2023-01-17T21:05:12.868Z,6.04
2023-01-17T21:08:12.867Z,6.03
2023-01-17T21:11:12.877Z,6.02
2023-01-17T21:14:12.894Z,6.09
2023-01-17T21:17:12.882Z,6.15
2023-01-17T21:20:14.914Z,6.14
2023-01-17T21:23:15.838Z,6.18
2023-01-17T21:26:15.832Z,6.21
2023-01-17T21:29:16.040Z,6.13
2023-01-17T21:32:15.843Z,6.17
2023-01-17T21:35:15.892Z,6.24
2023-01-17T21:38:15.877Z,6.27
2023-01-17T21:41:15.878Z,6.25
2023-01-17T21:44:17.862Z,6.23
2023-01-17T21:47:17.901Z,6.32
2023-01-17T21:50:32.398Z,6.18
2023-01-17T21:53:33.926Z,6.31
2023-01-17T21:56:51.888Z,6.25
2023-01-17T21:59:51.867Z,6.25
2023-01-17T22:02:51.905Z,6.33
2023-01-17T22:05:51.861Z,6.39
2023-01-17T22:08:51.915Z,6.31
2023-01-17T22:11:51.883Z,6.38
2023-01-17T22:14:51.855Z,6.27
2023-01-17T22:17:51.883Z,6.37
2023-01-17T22:20:55.898Z,6.49
2023-01-17T22:24:00.890Z,6.50
2023-01-17T22:27:00.890Z,6.54
2023-01-17T22:30:00.877Z,6.63
2023-01-17T22:33:00.897Z,6.74
2023-01-17T22:36:00.855Z,6.84
2023-01-17T22:39:00.877Z,6.77
2023-01-17T22:41:53.853Z,6.87
2023-01-17T22:44:32.943Z,6.98
2023-01-17T22:47:19.890Z,6.95
2023-01-17T22:49:58.955Z,6.76
2023-01-17T22:52:45.908Z,6.93
2023-01-17T22:55:24.936Z,7.12
2023-01-17T22:58:11.870Z,7.14
2023-01-17T23:00:51.040Z,7.17
2023-01-17T23:03:38.906Z,7.22
2023-01-17T23:06:20.033Z,7.14
2023-01-17T23:09:09.919Z,7.58
2023-01-17T23:11:58.908Z,7.49
2023-01-17T23:15:20.845Z,7.31
2023-01-17T23:18:38.862Z,7.39
2023-01-17T23:21:58.868Z,7.45
2023-01-17T23:25:24.878Z,7.47
2023-01-17T23:28:27.884Z,7.49
2023-01-17T23:31:27.892Z,7.54
2023-01-17T23:34:27.896Z,7.51
2023-01-17T23:37:27.847Z,7.37
2023-01-17T23:40:27.857Z,7.39
2023-01-17T23:43:29.890Z,7.45
2023-01-17T23:46:29.924Z,7.48
2023-01-17T23:49:29.879Z,7.33
2023-01-17T23:52:29.853Z,7.52
2023-01-17T23:55:29.864Z,7.53
2023-01-17T23:58:29.918Z,7.69
